createdAt,value
2017-08-03T00:01:06.485Z,86.20
2017-08-03T00:03:33.930Z,85.90
2017-08-03T00:06:02.113Z,85.70
2017-08-03T00:08:29.553Z,85.50
2017-08-03T00:10:57.749Z,85.60
2017-08-03T00:13:25.180Z,85.50
2017-08-03T00:15:53.381Z,85.00
2017-08-03T00:18:20.809Z,85.00
2017-08-03T00:20:49.014Z,85.70
2017-08-03T00:23:16.447Z,85.00
2017-08-03T00:25:44.634Z,85.00
2017-08-03T00:28:12.900Z,85.00
2017-08-03T00:30:41.114Z,85.20
2017-08-03T00:33:08.541Z,85.00
2017-08-03T00:35:35.960Z,85.20
2017-08-03T00:38:03.392Z,85.20
2017-08-03T00:40:30.817Z,85.10
2017-08-03T00:42:58.263Z,84.60
2017-08-03T00:45:25.697Z,84.80
2017-08-03T00:47:53.133Z,84.70
2017-08-03T00:50:20.574Z,85.00
2017-08-03T00:52:48.005Z,85.40
2017-08-03T00:55:15.454Z,85.70
2017-08-03T00:57:42.877Z,85.70
2017-08-03T01:00:10.308Z,86.10
2017-08-03T01:02:37.746Z,86.10
2017-08-03T01:05:05.191Z,86.20
2017-08-03T01:07:33.628Z,86.10
2017-08-03T01:10:01.845Z,86.10
2017-08-03T01:12:29.268Z,85.80
2017-08-03T01:14:57.468Z,86.20
2017-08-03T01:17:24.899Z,86.10
2017-08-03T01:19:53.101Z,85.80
2017-08-03T01:22:20.531Z,86.40
2017-08-03T01:24:48.736Z,86.20
2017-08-03T01:27:16.172Z,85.40
2017-08-03T01:29:43.595Z,85.70
2017-08-03T01:32:11.031Z,85.90
2017-08-03T01:34:38.479Z,86.10
2017-08-03T01:37:05.904Z,85.90
2017-08-03T01:39:33.333Z,86.00
2017-08-03T01:42:00.759Z,85.50
2017-08-03T01:44:28.200Z,86.20
2017-08-03T01:46:55.630Z,86.60
2017-08-03T01:49:23.068Z,86.90
2017-08-03T01:51:51.269Z,87.40
2017-08-03T01:54:18.699Z,86.70
2017-08-03T01:56:46.904Z,86.40
2017-08-03T01:59:14.332Z,86.40
2017-08-03T02:01:42.536Z,85.80
2017-08-03T02:04:09.963Z,85.70
2017-08-03T02:06:38.164Z,85.80
2017-08-03T02:09:05.592Z,85.80
2017-08-03T02:11:33.789Z,85.80
2017-08-03T02:14:01.217Z,85.50
2017-08-03T02:16:29.424Z,85.60
2017-08-03T02:18:56.852Z,85.60
2017-08-03T02:21:24.288Z,85.70
2017-08-03T02:23:51.720Z,86.60
2017-08-03T02:26:19.149Z,86.10
2017-08-03T02:28:46.574Z,86.00
2017-08-03T02:31:14.775Z,86.30
2017-08-03T02:33:42.200Z,86.30
2017-08-03T02:36:09.647Z,86.30
2017-08-03T02:38:38.036Z,86.30
2017-08-03T02:41:05.478Z,86.50
2017-08-03T02:43:32.903Z,86.70
2017-08-03T02:46:00.341Z,86.70
2017-08-03T02:48:27.764Z,86.70
2017-08-03T02:50:55.202Z,86.30
2017-08-03T02:53:22.629Z,86.50
2017-08-03T02:55:50.069Z,86.70
2017-08-03T02:58:17.495Z,86.40
2017-08-03T03:00:44.925Z,86.60
2017-08-03T03:03:12.355Z,86.70
2017-08-03T03:05:39.781Z,86.60
2017-08-03T03:08:07.212Z,86.00
2017-08-03T03:10:34.640Z,86.70
2017-08-03T03:13:02.071Z,87.00
2017-08-03T03:15:29.504Z,86.70
2017-08-03T03:17:56.939Z,86.60
2017-08-03T03:20:24.384Z,87.20
2017-08-03T03:22:51.796Z,87.20
2017-08-03T03:25:19.224Z,87.60
2017-08-03T03:27:47.428Z,87.20
2017-08-03T03:30:14.854Z,87.00
2017-08-03T03:32:43.048Z,86.40
2017-08-03T03:35:10.476Z,86.40
2017-08-03T03:37:38.680Z,86.20
2017-08-03T03:40:06.108Z,86.10
2017-08-03T03:42:34.313Z,86.10
2017-08-03T03:45:01.757Z,86.10
2017-08-03T03:47:29.945Z,86.10
2017-08-03T03:49:57.372Z,86.00
2017-08-03T03:52:24.807Z,86.50
2017-08-03T03:54:52.237Z,85.80
2017-08-03T03:57:19.674Z,86.40
2017-08-03T03:59:47.101Z,86.20
2017-08-03T04:02:14.529Z,86.00
2017-08-03T04:04:41.960Z,86.70
2017-08-03T04:07:09.388Z,86.00
2017-08-03T04:09:36.824Z,86.70
2017-08-03T04:12:04.249Z,86.10
2017-08-03T04:14:31.692Z,86.50
2017-08-03T04:16:59.117Z,87.20
2017-08-03T04:19:26.648Z,86.10
2017-08-03T04:21:54.844Z,86.10
2017-08-03T04:24:22.384Z,86.10
2017-08-03T04:26:50.574Z,86.30
2017-08-03T04:29:18.007Z,86.40
2017-08-03T04:31:46.205Z,86.90
2017-08-03T04:34:13.749Z,86.50
2017-08-03T04:36:41.948Z,86.30
2017-08-03T04:39:09.381Z,86.10
2017-08-03T04:41:37.651Z,86.40
2017-08-03T04:44:05.853Z,86.80
2017-08-03T04:46:33.381Z,86.80
2017-08-03T04:49:00.821Z,86.50
2017-08-03T04:51:28.255Z,85.90
2017-08-03T04:53:55.683Z,86.10
2017-08-03T04:56:23.112Z,86.10
2017-08-03T04:58:51.321Z,87.60
2017-08-03T05:01:18.744Z,87.00
2017-08-03T05:03:46.937Z,87.70
2017-08-03T05:06:14.372Z,87.70
2017-08-03T05:08:42.568Z,89.40
2017-08-03T05:11:10.018Z,89.40
2017-08-03T05:13:37.444Z,89.90
2017-08-03T05:16:04.882Z,90.10
2017-08-03T05:18:32.369Z,90.10
2017-08-03T05:20:59.804Z,90.50
2017-08-03T05:23:27.286Z,90.90
2017-08-03T05:25:55.492Z,91.60
2017-08-03T05:28:22.921Z,91.50
2017-08-03T05:30:51.127Z,91.80
2017-08-03T05:33:18.557Z,91.80
2017-08-03T05:35:46.759Z,91.80
2017-08-03T05:38:14.193Z,91.80
2017-08-03T05:40:42.456Z,91.70
2017-08-03T05:43:10.732Z,91.70
2017-08-03T05:45:38.940Z,91.60
2017-08-03T05:48:06.377Z,91.80
2017-08-03T05:50:33.809Z,91.70
2017-08-03T05:53:01.241Z,91.30
2017-08-03T05:55:28.684Z,91.10
2017-08-03T05:57:56.112Z,91.20
2017-08-03T06:00:23.549Z,90.90
2017-08-03T06:02:51.745Z,91.00
2017-08-03T06:05:19.181Z,90.90
2017-08-03T06:07:47.380Z,91.50
2017-08-03T06:10:14.819Z,91.20
2017-08-03T06:12:43.034Z,91.30
2017-08-03T06:15:10.464Z,91.30
2017-08-03T06:17:39.925Z,91.50
2017-08-03T06:20:07.400Z,91.60
2017-08-03T06:22:35.689Z,91.30
2017-08-03T06:25:03.884Z,91.20
2017-08-03T06:27:31.324Z,91.20
2017-08-03T06:29:59.521Z,91.60
2017-08-03T06:32:26.955Z,91.60
2017-08-03T06:34:54.398Z,91.80
2017-08-03T06:37:21.828Z,91.80
2017-08-03T06:39:49.321Z,91.80
2017-08-03T06:42:17.594Z,91.80
2017-08-03T06:44:45.791Z,91.80
2017-08-03T06:47:13.224Z,91.80
2017-08-03T06:49:41.424Z,91.40
2017-08-03T06:52:08.869Z,91.30
2017-08-03T06:54:36.293Z,91.40
2017-08-03T06:57:03.728Z,91.30
2017-08-03T06:59:31.160Z,91.30
2017-08-03T07:01:58.592Z,91.30
2017-08-03T07:04:26.028Z,91.20
2017-08-03T07:06:54.235Z,90.50
2017-08-03T07:09:21.667Z,90.80
2017-08-03T07:11:49.119Z,90.70
2017-08-03T07:14:16.535Z,90.60
2017-08-03T07:16:43.965Z,90.60
2017-08-03T07:19:11.401Z,91.00
2017-08-03T07:21:39.597Z,90.80
2017-08-03T07:24:07.033Z,90.80
2017-08-03T07:26:34.472Z,90.70
2017-08-03T07:29:01.914Z,90.60
2017-08-03T07:31:29.347Z,90.50
2017-08-03T07:33:56.785Z,90.70
2017-08-03T07:36:24.212Z,90.90
2017-08-03T07:38:52.427Z,90.90
2017-08-03T07:41:19.856Z,90.80
2017-08-03T07:43:47.288Z,90.40
2017-08-03T07:46:15.491Z,90.20
2017-08-03T07:48:42.929Z,90.10
2017-08-03T07:51:11.132Z,89.90
2017-08-03T07:53:38.569Z,89.90
2017-08-03T07:56:06.002Z,88.30
2017-08-03T07:58:33.471Z,88.00
2017-08-03T08:01:00.928Z,88.50
2017-08-03T08:03:29.129Z,89.40
2017-08-03T08:05:56.568Z,89.20
2017-08-03T08:08:24.765Z,89.60
2017-08-03T08:10:52.192Z,89.60
2017-08-03T08:13:20.392Z,90.00
2017-08-03T08:15:47.844Z,89.90
2017-08-03T08:18:15.305Z,90.00
2017-08-03T08:20:42.737Z,90.10
2017-08-03T08:23:10.940Z,90.10
2017-08-03T08:25:38.376Z,90.10
2017-08-03T08:28:05.808Z,90.30
2017-08-03T08:30:33.261Z,90.50
2017-08-03T08:33:00.728Z,90.70
2017-08-03T08:35:28.164Z,91.00
2017-08-03T08:37:55.600Z,90.80
2017-08-03T08:40:23.040Z,90.80
2017-08-03T08:42:50.471Z,90.90
2017-08-03T08:45:17.940Z,90.60
2017-08-03T08:47:45.392Z,90.80
2017-08-03T08:50:12.832Z,90.50
2017-08-03T08:52:41.032Z,90.60
2017-08-03T08:55:08.469Z,90.40
2017-08-03T08:57:36.667Z,90.60
2017-08-03T09:00:04.108Z,90.50
2017-08-03T09:02:31.536Z,90.40
2017-08-03T09:04:58.973Z,90.50
2017-08-03T09:07:27.229Z,90.80
2017-08-03T09:09:54.673Z,90.70
2017-08-03T09:12:22.101Z,90.80
2017-08-03T09:14:50.313Z,90.60
2017-08-03T09:17:17.739Z,90.60
2017-08-03T09:19:45.199Z,90.50
2017-08-03T09:22:12.632Z,90.40
2017-08-03T09:24:40.062Z,90.60
2017-08-03T09:27:07.500Z,90.20
2017-08-03T09:29:34.940Z,90.20
2017-08-03T09:32:02.376Z,90.20
2017-08-03T09:34:30.571Z,90.30
2017-08-03T09:36:58.017Z,90.30
2017-08-03T09:39:25.447Z,90.30
2017-08-03T09:41:52.880Z,90.30
2017-08-03T09:44:20.315Z,90.20
2017-08-03T09:46:47.760Z,90.00
2017-08-03T09:49:15.191Z,90.10
2017-08-03T09:51:42.628Z,90.30
2017-08-03T09:54:10.057Z,90.00
2017-08-03T09:56:37.497Z,89.90
2017-08-03T09:59:04.924Z,90.00
2017-08-03T10:01:32.356Z,89.40
2017-08-03T10:03:59.792Z,89.70
2017-08-03T10:06:27.232Z,89.70
2017-08-03T10:08:54.819Z,89.80
2017-08-03T10:11:22.241Z,90.00
2017-08-03T10:13:49.667Z,89.80
2017-08-03T10:16:17.105Z,89.30
2017-08-03T10:18:44.540Z,89.90
2017-08-03T10:21:11.992Z,90.00
2017-08-03T10:23:39.436Z,89.80
2017-08-03T10:26:06.888Z,90.00
2017-08-03T10:28:34.317Z,89.90
2017-08-03T10:31:01.748Z,90.00
2017-08-03T10:33:29.952Z,90.00
2017-08-03T10:35:57.388Z,89.50
2017-08-03T10:38:25.598Z,89.10
2017-08-03T10:40:53.028Z,89.00
2017-08-03T10:43:20.472Z,88.30
2017-08-03T10:45:48.669Z,88.00
2017-08-03T10:48:16.107Z,88.00
2017-08-03T10:50:43.544Z,88.20
2017-08-03T10:53:10.980Z,87.80
2017-08-03T10:55:38.421Z,88.00
2017-08-03T10:58:05.864Z,87.90
2017-08-03T11:00:33.321Z,87.60
2017-08-03T11:03:00.755Z,87.70
2017-08-03T11:05:28.193Z,88.20
2017-08-03T11:07:56.392Z,86.90
2017-08-03T11:10:23.894Z,87.50
2017-08-03T11:12:51.312Z,87.50
2017-08-03T11:15:18.748Z,87.50
2017-08-03T11:17:46.201Z,86.50
2017-08-03T11:20:14.472Z,86.40
2017-08-03T11:22:41.904Z,86.40
2017-08-03T11:25:09.350Z,85.40
2017-08-03T11:27:36.784Z,85.60
2017-08-03T11:30:04.223Z,85.30
2017-08-03T11:32:31.653Z,86.40
2017-08-03T11:34:59.859Z,85.00
2017-08-03T11:37:27.294Z,84.20
2017-08-03T11:39:54.732Z,84.20
2017-08-03T11:42:22.197Z,84.00
2017-08-03T11:44:50.404Z,82.50
2017-08-03T11:47:17.838Z,82.50
2017-08-03T11:49:45.285Z,81.10
2017-08-03T11:52:12.716Z,80.50
2017-08-03T11:54:40.159Z,79.90
2017-08-03T11:57:07.584Z,79.10
2017-08-03T11:59:35.034Z,79.10
2017-08-03T12:02:03.229Z,79.20
2017-08-03T12:04:30.667Z,79.10
2017-08-03T12:06:58.100Z,76.10
2017-08-03T12:09:25.541Z,76.40
2017-08-03T12:11:52.976Z,75.80
2017-08-03T12:14:20.421Z,74.80
2017-08-03T12:16:47.852Z,75.70
2017-08-03T12:19:15.280Z,75.00
2017-08-03T12:21:42.748Z,74.70
2017-08-03T12:24:10.180Z,74.70
2017-08-03T12:26:37.652Z,74.70
2017-08-03T12:29:05.093Z,74.10
2017-08-03T12:31:32.526Z,74.70
2017-08-03T12:33:59.965Z,74.50
2017-08-03T12:36:27.479Z,74.50
2017-08-03T12:38:55.712Z,74.00
2017-08-03T12:41:23.145Z,74.00
2017-08-03T12:43:50.576Z,73.80
2017-08-03T12:46:18.020Z,74.50
2017-08-03T12:48:45.446Z,74.10
2017-08-03T12:51:12.887Z,72.40
2017-08-03T12:53:40.315Z,72.70
2017-08-03T12:56:07.748Z,71.40
2017-08-03T12:58:35.944Z,70.00
2017-08-03T13:01:03.376Z,70.10
2017-08-03T13:03:30.808Z,70.50
2017-08-03T13:05:58.245Z,69.40
2017-08-03T13:08:25.676Z,70.90
2017-08-03T13:10:53.109Z,71.40
2017-08-03T13:13:20.538Z,59.60
2017-08-03T13:15:47.974Z,65.00
2017-08-03T13:18:15.397Z,59.00
2017-08-03T13:20:42.833Z,56.70
2017-08-03T13:23:11.024Z,55.60
2017-08-03T13:25:38.465Z,55.50
2017-08-03T13:28:05.884Z,55.80
2017-08-03T13:30:33.576Z,56.80
2017-08-03T13:33:00.997Z,53.50
2017-08-03T13:35:28.428Z,52.90
2017-08-03T13:37:55.858Z,51.80
2017-08-03T13:40:24.156Z,50.70
2017-08-03T13:42:51.584Z,50.70
2017-08-03T13:45:19.015Z,51.80
2017-08-03T13:47:48.274Z,52.60
2017-08-03T13:50:16.444Z,52.50
2017-08-03T13:52:43.877Z,52.60
2017-08-03T13:55:11.304Z,52.20
2017-08-03T13:57:43.804Z,53.00
2017-08-03T14:00:11.228Z,54.90
2017-08-03T14:02:38.666Z,53.60
2017-08-03T14:05:06.089Z,51.20
2017-08-03T14:07:33.523Z,51.40
2017-08-03T14:10:00.958Z,50.00
2017-08-03T14:12:28.395Z,51.10
2017-08-03T14:14:55.823Z,50.10
2017-08-03T14:17:23.248Z,50.30
2017-08-03T14:19:50.679Z,51.40
2017-08-03T14:22:18.160Z,51.70
2017-08-03T14:24:45.596Z,51.80
2017-08-03T14:27:13.025Z,51.00
2017-08-03T14:29:40.452Z,53.20
2017-08-03T14:32:07.881Z,52.20
2017-08-03T14:34:35.317Z,53.80
2017-08-03T14:37:02.744Z,50.30
2017-08-03T14:39:31.188Z,52.80
2017-08-03T14:41:59.376Z,51.20
2017-08-03T14:44:26.814Z,51.20
2017-08-03T14:46:54.273Z,51.60
2017-08-03T14:49:21.779Z,52.50
2017-08-03T14:51:49.242Z,52.30
2017-08-03T14:54:16.639Z,51.80
2017-08-03T14:56:44.108Z,54.20
2017-08-03T14:59:12.300Z,54.00
2017-08-03T15:01:39.729Z,54.00
2017-08-03T15:04:08.928Z,55.80
2017-08-03T15:06:36.361Z,55.30
2017-08-03T15:09:03.796Z,55.00
2017-08-03T15:11:31.228Z,55.20
2017-08-03T15:13:58.657Z,57.30
2017-08-03T15:16:26.085Z,55.20
2017-08-03T15:18:53.519Z,57.20
2017-08-03T15:21:20.945Z,56.20
2017-08-03T15:23:48.390Z,54.50
2017-08-03T15:26:15.808Z,54.80
2017-08-03T15:28:43.232Z,55.80
2017-08-03T15:31:10.701Z,53.80
2017-08-03T15:33:38.101Z,55.80
2017-08-03T15:36:05.561Z,54.80
2017-08-03T15:38:32.991Z,57.20
2017-08-03T15:41:00.416Z,58.00
2017-08-03T15:43:27.857Z,59.50
2017-08-03T15:45:55.281Z,56.20
2017-08-03T15:48:22.719Z,58.10
2017-08-03T15:50:50.152Z,57.40
2017-08-03T15:53:17.580Z,57.20
2017-08-03T15:55:45.004Z,55.80
2017-08-03T15:58:12.905Z,56.90
2017-08-03T16:00:40.332Z,57.30
2017-08-03T16:03:07.759Z,57.00
2017-08-03T16:05:35.183Z,57.60
2017-08-03T16:08:02.620Z,57.20
2017-08-03T16:10:30.041Z,57.40
2017-08-03T16:12:57.488Z,57.60
2017-08-03T16:15:24.916Z,61.50
2017-08-03T16:17:52.348Z,59.60
2017-08-03T16:20:20.536Z,58.60
2017-08-03T16:22:47.984Z,58.60
2017-08-03T16:25:15.409Z,59.20
2017-08-03T16:27:42.840Z,60.70
2017-08-03T16:30:10.273Z,58.80
2017-08-03T16:32:37.696Z,59.50
2017-08-03T16:35:05.132Z,59.70
2017-08-03T16:37:32.586Z,60.80
2017-08-03T16:40:00.006Z,59.30
2017-08-03T16:42:27.416Z,61.30
2017-08-03T16:44:54.847Z,60.30
2017-08-03T16:47:22.280Z,59.40
2017-08-03T16:49:49.717Z,58.40
2017-08-03T16:52:17.137Z,59.60
2017-08-03T16:54:44.572Z,61.80
2017-08-03T16:57:12.001Z,59.60
2017-08-03T16:59:39.432Z,58.90
2017-08-03T17:02:06.867Z,58.90
2017-08-03T17:04:34.288Z,61.50
2017-08-03T17:07:01.708Z,60.10
2017-08-03T17:09:29.157Z,60.80
2017-08-03T17:11:56.590Z,59.80
2017-08-03T17:14:24.044Z,59.60
2017-08-03T17:16:51.504Z,58.50
2017-08-03T17:19:18.934Z,60.20
2017-08-03T17:21:46.371Z,60.80
2017-08-03T17:24:13.804Z,59.60
2017-08-03T17:26:41.337Z,61.40
2017-08-03T17:29:09.528Z,60.50
2017-08-03T17:31:36.964Z,60.30
2017-08-03T17:34:05.157Z,61.20
2017-08-03T17:36:32.604Z,60.60
2017-08-03T17:39:00.009Z,62.90
2017-08-03T17:41:27.469Z,61.30
2017-08-03T17:43:54.896Z,61.90
2017-08-03T17:46:22.496Z,63.00
2017-08-03T17:48:49.936Z,63.20
2017-08-03T17:51:17.358Z,62.40
2017-08-03T17:53:44.784Z,62.70
2017-08-03T17:56:12.221Z,63.30
2017-08-03T17:58:39.648Z,64.60
2017-08-03T18:01:07.076Z,65.60
2017-08-03T18:03:34.508Z,63.90
2017-08-03T18:06:01.937Z,66.40
2017-08-03T18:08:29.432Z,65.80
2017-08-03T18:10:56.866Z,65.00
2017-08-03T18:13:24.300Z,65.00
2017-08-03T18:15:51.723Z,66.10
2017-08-03T18:18:19.158Z,64.40
2017-08-03T18:20:46.579Z,66.60
2017-08-03T18:23:14.073Z,66.60
2017-08-03T18:25:41.508Z,67.00
2017-08-03T18:28:08.939Z,66.50
2017-08-03T18:30:36.380Z,65.40
2017-08-03T18:33:03.844Z,67.90
2017-08-03T18:35:31.275Z,65.70
2017-08-03T18:37:58.692Z,66.70
2017-08-03T18:40:26.168Z,68.80
2017-08-03T18:42:53.612Z,67.80
2017-08-03T18:45:21.047Z,64.20
2017-08-03T18:47:48.464Z,66.30
2017-08-03T18:50:15.900Z,67.70
2017-08-03T18:52:44.091Z,63.90
2017-08-03T18:55:11.524Z,63.80
2017-08-03T18:57:38.939Z,65.40
2017-08-03T19:00:06.379Z,66.50
2017-08-03T19:02:33.800Z,67.30
2017-08-03T19:05:01.991Z,64.20
2017-08-03T19:07:29.429Z,64.30
2017-08-03T19:09:56.854Z,68.10
2017-08-03T19:12:24.280Z,68.30
2017-08-03T19:14:51.708Z,68.90
2017-08-03T19:17:19.899Z,68.10
2017-08-03T19:19:47.331Z,68.00
2017-08-03T19:22:14.756Z,68.30
2017-08-03T19:24:42.181Z,68.00
2017-08-03T19:27:09.613Z,67.70
2017-08-03T19:29:37.032Z,68.20
2017-08-03T19:32:04.466Z,68.70
2017-08-03T19:34:31.920Z,69.90
2017-08-03T19:36:59.354Z,68.10
2017-08-03T19:39:26.780Z,68.90
2017-08-03T19:41:54.968Z,67.70
2017-08-03T19:44:22.392Z,67.60
2017-08-03T19:46:49.822Z,69.10
2017-08-03T19:49:17.253Z,67.60
2017-08-03T19:51:44.676Z,69.60
2017-08-03T19:54:12.116Z,69.40
2017-08-03T19:56:39.544Z,69.50
2017-08-03T19:59:06.968Z,67.70
2017-08-03T20:01:34.398Z,68.60
2017-08-03T20:04:01.865Z,68.70
2017-08-03T20:06:30.059Z,67.20
2017-08-03T20:09:12.377Z,67.20
2017-08-03T20:11:39.803Z,68.10
2017-08-03T20:14:07.997Z,69.20
2017-08-03T20:16:35.460Z,69.50
2017-08-03T20:19:02.884Z,69.70
2017-08-03T20:21:30.316Z,70.30
2017-08-03T20:23:57.757Z,68.30
2017-08-03T20:26:25.175Z,67.60
2017-08-03T20:28:52.602Z,67.40
2017-08-03T20:31:20.050Z,68.30
2017-08-03T20:33:47.482Z,67.60
2017-08-03T20:36:14.909Z,66.60
2017-08-03T20:38:42.366Z,66.10
2017-08-03T20:41:09.810Z,66.20
2017-08-03T20:43:38.060Z,66.50
2017-08-03T20:46:05.536Z,66.40
2017-08-03T20:48:33.721Z,65.60
2017-08-03T20:51:01.148Z,65.70
2017-08-03T20:53:28.573Z,65.50
2017-08-03T20:55:55.999Z,65.20
2017-08-03T20:58:23.425Z,65.70
2017-08-03T21:00:50.860Z,66.00
2017-08-03T21:03:18.293Z,68.00
2017-08-03T21:05:45.720Z,66.60
2017-08-03T21:08:13.144Z,66.30
2017-08-03T21:10:40.583Z,65.90
2017-08-03T21:13:08.059Z,66.70
2017-08-03T21:15:35.514Z,66.80
2017-08-03T21:18:02.942Z,66.80
2017-08-03T21:20:30.368Z,67.20
2017-08-03T21:22:57.795Z,67.20
2017-08-03T21:25:26.020Z,68.60
2017-08-03T21:27:53.453Z,68.60
2017-08-03T21:30:20.873Z,67.90
2017-08-03T21:32:48.305Z,68.80
2017-08-03T21:35:15.727Z,68.70
2017-08-03T21:37:43.157Z,68.40
2017-08-03T21:40:11.345Z,68.60
2017-08-03T21:42:38.787Z,68.60
2017-08-03T21:45:06.196Z,68.80
2017-08-03T21:47:33.623Z,69.10
2017-08-03T21:50:01.052Z,68.40
2017-08-03T21:52:28.496Z,68.80
2017-08-03T21:54:55.926Z,69.00
2017-08-03T21:57:23.349Z,69.00
2017-08-03T21:59:50.777Z,69.20
2017-08-03T22:02:18.974Z,69.60
2017-08-03T22:04:46.405Z,69.50
2017-08-03T22:07:13.832Z,69.70
2017-08-03T22:09:41.280Z,70.00
2017-08-03T22:12:08.690Z,70.10
2017-08-03T22:14:36.889Z,73.40
2017-08-03T22:17:04.312Z,73.40
2017-08-03T22:19:32.511Z,72.80
2017-08-03T22:21:59.937Z,72.70
2017-08-03T22:24:27.368Z,72.20
2017-08-03T22:26:54.906Z,71.60
2017-08-03T22:29:22.310Z,71.30
2017-08-03T22:31:50.508Z,71.90
2017-08-03T22:34:17.955Z,71.70
2017-08-03T22:36:45.386Z,71.60
2017-08-03T22:39:12.811Z,71.40
2017-08-03T22:41:40.244Z,71.00
2017-08-03T22:44:07.668Z,71.10
2017-08-03T22:46:35.896Z,71.50
2017-08-03T22:49:03.316Z,71.50
2017-08-03T22:51:30.756Z,71.60
2017-08-03T22:53:58.949Z,71.80
2017-08-03T22:56:26.388Z,71.80
2017-08-03T22:58:53.808Z,72.10
2017-08-03T23:01:21.245Z,71.90
2017-08-03T23:03:48.673Z,72.20
2017-08-03T23:06:16.116Z,72.10
2017-08-03T23:08:44.296Z,76.00
2017-08-03T23:11:12.495Z,76.10
2017-08-03T23:13:39.924Z,76.10
2017-08-03T23:16:08.110Z,76.80
2017-08-03T23:18:35.545Z,76.70
2017-08-03T23:21:02.963Z,77.80
2017-08-03T23:23:30.397Z,77.10
2017-08-03T23:25:57.822Z,76.60
2017-08-03T23:28:26.009Z,77.20
2017-08-03T23:30:53.441Z,77.10
2017-08-03T23:33:20.868Z,77.50
2017-08-03T23:35:48.336Z,77.50
2017-08-03T23:38:15.782Z,78.00
2017-08-03T23:40:43.200Z,78.00
2017-08-03T23:43:10.633Z,78.40
2017-08-03T23:45:38.820Z,79.00
2017-08-03T23:48:07.032Z,78.00
2017-08-03T23:50:34.456Z,77.90
2017-08-03T23:53:01.875Z,78.60
2017-08-03T23:55:29.308Z,79.40
2017-08-03T23:57:56.732Z,78.40
